Buoy 17652

sailwx.info

Track history (hours):
 
Tides and Currents Weather Stations Pressure Air Temp Water Temp Dewpoint Dewpoint Depression Visibility Wind Speed Wind Dir Waves Ship Positions

Drifting buoy 17652

Last reported at 2016-Feb-14 09:00 UTC. Time now 2016-Feb-14 10:06 UTC.
Position S 39°44' E 000°28'.

Barometer 1021.3 mb
Water temperature 13.9 ° C

Date/timePositionNaut miles runAvg speedWind from/ knotsBaromVisibWave heightAir tempDewpointWater temp
2016-Feb-14 09:00S 39°44' E 000°28'0 0.0 1021.3 13.9
2016-Feb-14 07:00S 39°44' E 000°28'2 0.8 1019.3 13.9
2016-Feb-14 05:00S 39°45' E 000°29'2 0.8 1016.8 13.9
2016-Feb-14 03:00S 39°46' E 000°29'0 0.0 1015.5 13.9
2016-Feb-14 01:00S 39°46' E 000°29'1 1.2 1015.6 13.9
2016-Feb-14 00:00S 39°46' E 000°27'0 0.1 1016.1 13.9
2016-Feb-13 23:00S 39°46' E 000°27'0 0.2 1016.3 13.9
2016-Feb-13 21:00S 39°45' E 000°27'1 0.9 1017.6 13.9
2016-Feb-13 20:00S 39°44' E 000°27'1 0.7 1017.6 13.9
2016-Feb-13 19:00S 39°44' E 000°26'1 0.6 1017.4 13.9
2016-Feb-13 17:00S 39°43' E 000°26'1 1.0 1017.1 13.9
2016-Feb-13 16:00S 39°42' E 000°26'0 0.0 1017.9 13.9
2016-Feb-13 15:00S 39°42' E 000°26'3 0.5 1018.7 13.9
2016-Feb-13 09:00S 39°42' E 000°30'1 0.5 1021.8 13.9
2016-Feb-13 07:00S 39°43' E 000°30'3 0.8 1022.2 13.9
2016-Feb-13 03:00S 39°42' E 000°27'3 0.6 1022.6 13.9
2016-Feb-12 22:00S 39°40' E 000°30'1 0.7 1025.1 13.9
2016-Feb-12 21:00S 39°40' E 000°30'2 0.3 1025.7 13.9
2016-Feb-12 16:00S 39°41' E 000°31'1 0.1 1025.5 13.9
2016-Feb-12 08:00S 39°41' E 000°29'1 0.8 1027.5 13.8
2016-Feb-12 07:00S 39°40' E 000°29'0 0.0 1027.3 13.8
2016-Feb-12 06:00S 39°40' E 000°29'1 0.7 1027.1 13.8
2016-Feb-12 05:00S 39°40' E 000°28'1 0.7 1027.1 13.9
2016-Feb-12 03:00S 39°39' E 000°30'0 0.2 1027.0 13.9
2016-Feb-12 02:00S 39°39' E 000°30'0 0.2 1027.2 13.9
2016-Feb-12 01:00S 39°39' E 000°30'2 1.8 1027.7 14.0
2016-Feb-12 00:00S 39°39' E 000°32'0 0.4 1028.1 14.0
2016-Feb-11 23:00S 39°39' E 000°32'1 0.3 1028.4 14.0
2016-Feb-11 20:00S 39°40' E 000°32'2 0.9 1028.4 14.1
2016-Feb-11 18:00S 39°41' E 000°30'0 0.4 1027.9 14.3
2016-Feb-11 17:00S 39°41' E 000°30'4 0.3 1027.8 14.3
2016-Feb-11 05:00S 39°41' E 000°35'0 0.0 1026.9 14.2
2016-Feb-11 04:00S 39°41' E 000°35'3 0.3 1026.5 14.2
2016-Feb-10 17:00S 39°44' E 000°35'1 0.5 1024.5 14.5
2016-Feb-10 16:00S 39°43' E 000°35'0 0.0 1024.2 14.5
2016-Feb-10 14:00S 39°43' E 000°35'8 0.8 1023.7 14.5
2016-Feb-10 04:00S 39°50' E 000°42'0 0.0 1019.3 14.7
2016-Feb-10 03:00S 39°50' E 000°42'4 0.5 1018.8 14.7
2016-Feb-09 20:00S 39°48' E 000°45'0 0.2 1016.4 14.8
2016-Feb-09 18:00S 39°48' E 000°45'1 1.4 1014.4 14.8
2016-Feb-09 17:00S 39°48' E 000°47'3 2.8 1013.3 14.8
2016-Feb-09 16:00S 39°51' E 000°48'1 1.0 1013.8 14.8
2016-Feb-09 15:00S 39°51' E 000°50'0 0.1 1012.9 14.8
2016-Feb-09 14:00S 39°51' E 000°50'7 1.4 1013.1 14.8
2016-Feb-09 09:00S 39°58' E 000°48'2 1.0 1010.8 14.9
2016-Feb-09 07:00S 39°57' E 000°46'0 0.2 1009.2 14.9
2016-Feb-09 06:00S 39°57' E 000°45'1 1.4 1008.7 14.9
2016-Feb-09 05:00S 39°56' E 000°45'1 0.9 1008.3 14.8
2016-Feb-09 04:00S 39°55' E 000°44'1 1.0 1008.8 15.0
2016-Feb-09 03:00S 39°54' E 000°45'1 0.3 1009.8 15.1
2016-Feb-09 00:00S 39°53' E 000°45'0 0.2 1014.3 15.1
2016-Feb-08 22:00S 39°53' E 000°45'0 0.1 1016.0 15.1
2016-Feb-08 21:00S 39°53' E 000°45'1 0.2 1016.8 15.2
2016-Feb-08 18:00S 39°53' E 000°45'1 0.3 1017.4 15.2
2016-Feb-08 16:00S 39°54' E 000°45'4 4.1 1017.9 15.2
2016-Feb-08 15:00S 39°55' E 000°40'2 0.4 1018.4 15.2
2016-Feb-08 09:00S 39°53' E 000°40'1 1.0 1020.7 14.9
2016-Feb-08 08:00S 39°52' E 000°40'0 0.4 1020.8 14.9
2016-Feb-08 07:00S 39°52' E 000°41'1 0.4 1020.7 14.9
2016-Feb-08 04:00S 39°51' E 000°42'1 1.0 1020.0 14.9
2016-Feb-08 03:00S 39°52' E 000°43'1 0.7 1020.0 14.9
2016-Feb-08 02:00S 39°52' E 000°44'0 0.0 1020.0 14.9
2016-Feb-08 01:00S 39°52' E 000°44'0 0.0 1020.5 14.8
2016-Feb-08 00:00S 39°52' E 000°44'2 1.6 1020.8 14.8
2016-Feb-07 23:00S 39°54' E 000°42'2 0.8 1021.1 14.8
2016-Feb-07 20:00S 39°53' E 000°39'0 0.2 1021.4 14.8
2016-Feb-07 18:00S 39°53' E 000°39'1 0.3 1021.1 14.9
2016-Feb-07 16:00S 39°52' E 000°40'2 1.8 1020.9 14.9
2016-Feb-07 15:00S 39°51' E 000°38'1 0.2 1020.9 14.9
2016-Feb-07 09:00S 39°50' E 000°39'0 0.3 1022.3 14.6
2016-Feb-07 08:00S 39°50' E 000°39'0 0.4 1022.0 14.5
2016-Feb-07 07:00S 39°51' E 000°39'0 0.2 1022.0 14.5
2016-Feb-07 05:00S 39°51' E 000°39'2 0.5 1021.1 14.6
2016-Feb-07 01:00S 39°52' E 000°38'2 0.8 1021.4 14.6
2016-Feb-06 23:00S 39°52' E 000°35'1 0.5 1022.3 14.6
2016-Feb-06 22:00S 39°52' E 000°35'1 0.6 1022.0 14.6
2016-Feb-06 20:00S 39°50' E 000°34'3 0.3 1021.5 14.6
2016-Feb-06 10:00S 39°52' E 000°36'2 0.9 1018.5 14.4
2016-Feb-06 08:00S 39°54' E 000°35'1 0.3 1017.3 14.4
2016-Feb-06 06:00S 39°54' E 000°34'2 0.9 1015.6 14.3
2016-Feb-06 04:00S 39°54' E 000°31'0 0.1 1013.5 14.3
2016-Feb-06 02:00S 39°53' E 000°31'0 0.0 1012.6 14.2
2016-Feb-06 01:00S 39°53' E 000°31'1 0.4 1012.3 14.1
2016-Feb-05 22:00S 39°54' E 000°33'0 0.0 1010.5 14.0
2016-Feb-05 21:00S 39°54' E 000°33'0 0.0 1009.8 14.0
2016-Feb-05 20:00S 39°54' E 000°33'3 1.3 1008.8 14.0
2016-Feb-05 18:00S 39°56' E 000°32'1 1.0 1007.1 14.0
2016-Feb-05 17:00S 39°57' E 000°32'8 0.7 1006.1 14.0
2016-Feb-05 05:00S 40°01' E 000°23'0 0.2 998.1 14.0
2016-Feb-05 03:00S 40°01' E 000°23'0 0.1 998.2 14.0
2016-Feb-05 01:00S 40°01' E 000°23'1 1.0 999.8 13.9
2016-Feb-05 00:00S 40°02' E 000°23'0 0.0 1000.4 13.9
2016-Feb-04 23:00S 40°02' E 000°23'1 0.6 1000.8 13.9
2016-Feb-04 21:00S 40°03' E 000°21'1 1.1 1001.4 13.9
2016-Feb-04 20:00S 40°03' E 000°20'1 0.5 1001.2 13.9
2016-Feb-04 19:00S 40°03' E 000°19'1 0.6 1001.7 13.9
2016-Feb-04 17:00S 40°03' E 000°18'0 0.0 1001.9 13.9
2016-Feb-04 16:00S 40°03' E 000°18'1 1.1 1001.9 13.9
2016-Feb-04 15:00S 40°03' E 000°17'2 0.3 1002.2 13.9
2016-Feb-04 09:00S 40°01' E 000°16'   1004.2 13.8
Track history (hours):
 
Tides and Currents Weather Stations Pressure Air Temp Water Temp Dewpoint Dewpoint Depression Visibility Wind Speed Wind Dir Waves Ship Positions

Drifting buoy 17652

Last reported at 2016-Feb-14 09:00 UTC. Time now 2016-Feb-14 10:06 UTC.
Position S 39°44' E 000°28'.

Barometer 1021.3 mb
Water temperature 13.9 ° C

Date/timePositionNaut miles runAvg speedWind from/ knotsBaromVisibWave heightAir tempDewpointWater temp
2016-Feb-14 09:00S 39°44' E 000°28'0 0.0 1021.3 13.9
2016-Feb-14 07:00S 39°44' E 000°28'2 0.8 1019.3 13.9
2016-Feb-14 05:00S 39°45' E 000°29'2 0.8 1016.8 13.9
2016-Feb-14 03:00S 39°46' E 000°29'0 0.0 1015.5 13.9
2016-Feb-14 01:00S 39°46' E 000°29'1 1.2 1015.6 13.9
2016-Feb-14 00:00S 39°46' E 000°27'0 0.1 1016.1 13.9
2016-Feb-13 23:00S 39°46' E 000°27'0 0.2 1016.3 13.9
2016-Feb-13 21:00S 39°45' E 000°27'1 0.9 1017.6 13.9
2016-Feb-13 20:00S 39°44' E 000°27'1 0.7 1017.6 13.9
2016-Feb-13 19:00S 39°44' E 000°26'1 0.6 1017.4 13.9
2016-Feb-13 17:00S 39°43' E 000°26'1 1.0 1017.1 13.9
2016-Feb-13 16:00S 39°42' E 000°26'0 0.0 1017.9 13.9
2016-Feb-13 15:00S 39°42' E 000°26'3 0.5 1018.7 13.9
2016-Feb-13 09:00S 39°42' E 000°30'1 0.5 1021.8 13.9
2016-Feb-13 07:00S 39°43' E 000°30'3 0.8 1022.2 13.9
2016-Feb-13 03:00S 39°42' E 000°27'3 0.6 1022.6 13.9
2016-Feb-12 22:00S 39°40' E 000°30'1 0.7 1025.1 13.9
2016-Feb-12 21:00S 39°40' E 000°30'2 0.3 1025.7 13.9
2016-Feb-12 16:00S 39°41' E 000°31'1 0.1 1025.5 13.9
2016-Feb-12 08:00S 39°41' E 000°29'1 0.8 1027.5 13.8
2016-Feb-12 07:00S 39°40' E 000°29'0 0.0 1027.3 13.8
2016-Feb-12 06:00S 39°40' E 000°29'1 0.7 1027.1 13.8
2016-Feb-12 05:00S 39°40' E 000°28'1 0.7 1027.1 13.9
2016-Feb-12 03:00S 39°39' E 000°30'0 0.2 1027.0 13.9
2016-Feb-12 02:00S 39°39' E 000°30'0 0.2 1027.2 13.9
2016-Feb-12 01:00S 39°39' E 000°30'2 1.8 1027.7 14.0
2016-Feb-12 00:00S 39°39' E 000°32'0 0.4 1028.1 14.0
2016-Feb-11 23:00S 39°39' E 000°32'1 0.3 1028.4 14.0
2016-Feb-11 20:00S 39°40' E 000°32'2 0.9 1028.4 14.1
2016-Feb-11 18:00S 39°41' E 000°30'0 0.4 1027.9 14.3
2016-Feb-11 17:00S 39°41' E 000°30'4 0.3 1027.8 14.3
2016-Feb-11 05:00S 39°41' E 000°35'0 0.0 1026.9 14.2
2016-Feb-11 04:00S 39°41' E 000°35'3 0.3 1026.5 14.2
2016-Feb-10 17:00S 39°44' E 000°35'1 0.5 1024.5 14.5
2016-Feb-10 16:00S 39°43' E 000°35'0 0.0 1024.2 14.5
2016-Feb-10 14:00S 39°43' E 000°35'8 0.8 1023.7 14.5
2016-Feb-10 04:00S 39°50' E 000°42'0 0.0 1019.3 14.7
2016-Feb-10 03:00S 39°50' E 000°42'4 0.5 1018.8 14.7
2016-Feb-09 20:00S 39°48' E 000°45'0 0.2 1016.4 14.8
2016-Feb-09 18:00S 39°48' E 000°45'1 1.4 1014.4 14.8
2016-Feb-09 17:00S 39°48' E 000°47'3 2.8 1013.3 14.8
2016-Feb-09 16:00S 39°51' E 000°48'1 1.0 1013.8 14.8
2016-Feb-09 15:00S 39°51' E 000°50'0 0.1 1012.9 14.8
2016-Feb-09 14:00S 39°51' E 000°50'7 1.4 1013.1 14.8
2016-Feb-09 09:00S 39°58' E 000°48'2 1.0 1010.8 14.9
2016-Feb-09 07:00S 39°57' E 000°46'0 0.2 1009.2 14.9
2016-Feb-09 06:00S 39°57' E 000°45'1 1.4 1008.7 14.9
2016-Feb-09 05:00S 39°56' E 000°45'1 0.9 1008.3 14.8
2016-Feb-09 04:00S 39°55' E 000°44'1 1.0 1008.8 15.0
2016-Feb-09 03:00S 39°54' E 000°45'1 0.3 1009.8 15.1
2016-Feb-09 00:00S 39°53' E 000°45'0 0.2 1014.3 15.1
2016-Feb-08 22:00S 39°53' E 000°45'0 0.1 1016.0 15.1
2016-Feb-08 21:00S 39°53' E 000°45'1 0.2 1016.8 15.2
2016-Feb-08 18:00S 39°53' E 000°45'1 0.3 1017.4 15.2
2016-Feb-08 16:00S 39°54' E 000°45'4 4.1 1017.9 15.2
2016-Feb-08 15:00S 39°55' E 000°40'2 0.4 1018.4 15.2
2016-Feb-08 09:00S 39°53' E 000°40'1 1.0 1020.7 14.9
2016-Feb-08 08:00S 39°52' E 000°40'0 0.4 1020.8 14.9
2016-Feb-08 07:00S 39°52' E 000°41'1 0.4 1020.7 14.9
2016-Feb-08 04:00S 39°51' E 000°42'1 1.0 1020.0 14.9
2016-Feb-08 03:00S 39°52' E 000°43'1 0.7 1020.0 14.9
2016-Feb-08 02:00S 39°52' E 000°44'0 0.0 1020.0 14.9
2016-Feb-08 01:00S 39°52' E 000°44'0 0.0 1020.5 14.8
2016-Feb-08 00:00S 39°52' E 000°44'2 1.6 1020.8 14.8
2016-Feb-07 23:00S 39°54' E 000°42'2 0.8 1021.1 14.8
2016-Feb-07 20:00S 39°53' E 000°39'0 0.2 1021.4 14.8
2016-Feb-07 18:00S 39°53' E 000°39'1 0.3 1021.1 14.9
2016-Feb-07 16:00S 39°52' E 000°40'2 1.8 1020.9 14.9
2016-Feb-07 15:00S 39°51' E 000°38'1 0.2 1020.9 14.9
2016-Feb-07 09:00S 39°50' E 000°39'0 0.3 1022.3 14.6
2016-Feb-07 08:00S 39°50' E 000°39'0 0.4 1022.0 14.5
2016-Feb-07 07:00S 39°51' E 000°39'0 0.2 1022.0 14.5
2016-Feb-07 05:00S 39°51' E 000°39'2 0.5 1021.1 14.6
2016-Feb-07 01:00S 39°52' E 000°38'2 0.8 1021.4 14.6
2016-Feb-06 23:00S 39°52' E 000°35'1 0.5 1022.3 14.6
2016-Feb-06 22:00S 39°52' E 000°35'1 0.6 1022.0 14.6
2016-Feb-06 20:00S 39°50' E 000°34'3 0.3 1021.5 14.6
2016-Feb-06 10:00S 39°52' E 000°36'2 0.9 1018.5 14.4
2016-Feb-06 08:00S 39°54' E 000°35'1 0.3 1017.3 14.4
2016-Feb-06 06:00S 39°54' E 000°34'2 0.9 1015.6 14.3
2016-Feb-06 04:00S 39°54' E 000°31'0 0.1 1013.5 14.3
2016-Feb-06 02:00S 39°53' E 000°31'0 0.0 1012.6 14.2
2016-Feb-06 01:00S 39°53' E 000°31'1 0.4 1012.3 14.1
2016-Feb-05 22:00S 39°54' E 000°33'0 0.0 1010.5 14.0
2016-Feb-05 21:00S 39°54' E 000°33'0 0.0 1009.8 14.0
2016-Feb-05 20:00S 39°54' E 000°33'3 1.3 1008.8 14.0
2016-Feb-05 18:00S 39°56' E 000°32'1 1.0 1007.1 14.0
2016-Feb-05 17:00S 39°57' E 000°32'8 0.7 1006.1 14.0
2016-Feb-05 05:00S 40°01' E 000°23'0 0.2 998.1 14.0
2016-Feb-05 03:00S 40°01' E 000°23'0 0.1 998.2 14.0
2016-Feb-05 01:00S 40°01' E 000°23'1 1.0 999.8 13.9
2016-Feb-05 00:00S 40°02' E 000°23'0 0.0 1000.4 13.9
2016-Feb-04 23:00S 40°02' E 000°23'1 0.6 1000.8 13.9
2016-Feb-04 21:00S 40°03' E 000°21'1 1.1 1001.4 13.9
2016-Feb-04 20:00S 40°03' E 000°20'1 0.5 1001.2 13.9
2016-Feb-04 19:00S 40°03' E 000°19'1 0.6 1001.7 13.9
2016-Feb-04 17:00S 40°03' E 000°18'0 0.0 1001.9 13.9
2016-Feb-04 16:00S 40°03' E 000°18'1 1.1 1001.9 13.9
2016-Feb-04 15:00S 40°03' E 000°17'2 0.3 1002.2 13.9
2016-Feb-04 09:00S 40°01' E 000°16'   1004.2 13.8

Dump ship's entire track history